createdAt,value
2022-09-03T00:01:08.419Z,21.1
2022-09-03T00:06:43.244Z,21.1
2022-09-03T00:12:18.200Z,21.1
2022-09-03T00:17:53.360Z,21.1
2022-09-03T00:23:50.135Z,21.1
2022-09-03T00:29:24.908Z,21
2022-09-03T00:34:59.820Z,21
2022-09-03T00:40:34.830Z,21
2022-09-03T00:46:09.877Z,21
2022-09-03T00:51:45.653Z,20.9
2022-09-03T00:57:20.859Z,20.9
2022-09-03T01:02:55.936Z,20.9
2022-09-03T01:08:31.016Z,20.9
2022-09-03T01:14:06.246Z,20.9
2022-09-03T01:19:42.234Z,20.9
2022-09-03T01:25:38.837Z,20.9
2022-09-03T01:31:31.148Z,20.9
2022-09-03T01:37:07.132Z,20.8
2022-09-03T01:43:04.100Z,20.8
2022-09-03T01:48:37.687Z,20.8
2022-09-03T01:54:17.898Z,20.8
2022-09-03T01:59:56.469Z,20.8
2022-09-03T02:05:31.537Z,20.8
2022-09-03T02:11:06.325Z,20.7
2022-09-03T02:16:41.077Z,20.7
2022-09-03T02:22:38.131Z,20.7
2022-09-03T02:28:17.512Z,20.7
2022-09-03T02:33:53.621Z,20.7
2022-09-03T02:39:28.546Z,20.6
2022-09-03T02:45:04.490Z,20.6
2022-09-03T02:50:39.158Z,20.6
2022-09-03T02:56:14.993Z,20.6
2022-09-03T03:01:50.781Z,20.6
2022-09-03T03:07:27.579Z,20.6
2022-09-03T03:13:02.327Z,20.5
2022-09-03T03:18:37.042Z,20.5
2022-09-03T03:24:34.027Z,20.5
2022-09-03T03:30:07.663Z,20.5
2022-09-03T03:35:42.944Z,20.5
2022-09-03T03:41:17.721Z,20.5
2022-09-03T03:46:52.551Z,20.4
2022-09-03T03:52:27.397Z,20.4
2022-09-03T03:58:02.225Z,20.4
2022-09-03T04:03:38.789Z,20.4
2022-09-03T04:09:13.515Z,20.3
2022-09-03T04:14:48.280Z,20.3
2022-09-03T04:20:23.360Z,20.3
2022-09-03T04:26:19.807Z,20.3
2022-09-03T04:31:53.436Z,20.2
2022-09-03T04:37:28.376Z,20.2
2022-09-03T04:43:03.279Z,20.2
2022-09-03T04:48:39.147Z,20.2
2022-09-03T04:54:14.095Z,20.2
2022-09-03T04:59:49.148Z,20.2
2022-09-03T05:05:23.869Z,20.2
2022-09-03T05:10:58.691Z,20.2
2022-09-03T05:16:33.508Z,20.2
2022-09-03T05:22:10.880Z,20.2
2022-09-03T05:27:45.689Z,20.2
2022-09-03T05:33:20.387Z,20.1
2022-09-03T05:38:55.448Z,20.1
2022-09-03T05:44:33.176Z,20.1
2022-09-03T05:50:09.079Z,20.1
2022-09-03T05:55:44.040Z,20
2022-09-03T06:01:21.407Z,19.6
2022-09-03T06:06:56.425Z,19.6
2022-09-03T06:12:31.233Z,19.7
2022-09-03T06:18:11.945Z,19.7
2022-09-03T06:24:08.725Z,19.9
2022-09-03T06:29:41.933Z,20
2022-09-03T06:35:16.903Z,19.9
2022-09-03T06:40:51.842Z,19.9
2022-09-03T06:46:26.661Z,20.2
2022-09-03T06:52:01.742Z,20.2
2022-09-03T06:57:39.698Z,20.3
2022-09-03T07:03:14.283Z,20.5
2022-09-03T07:08:49.091Z,20.5
2022-09-03T07:14:34.033Z,20.6
2022-09-03T07:20:09.106Z,20.8
2022-09-03T07:26:06.578Z,21.1
2022-09-03T07:31:40.220Z,20.9
2022-09-03T07:37:15.985Z,21.3
2022-09-03T07:42:54.590Z,21.4
2022-09-03T07:48:32.257Z,21.8
2022-09-03T07:54:19.024Z,22
2022-09-03T07:59:53.816Z,22.2
2022-09-03T08:05:30.773Z,22.7
2022-09-03T08:11:05.560Z,23
2022-09-03T08:17:03.007Z,23.3
2022-09-03T08:22:36.821Z,23.2
2022-09-03T08:28:11.797Z,23.3
2022-09-03T08:33:46.655Z,23.4
2022-09-03T08:39:21.505Z,23.9
2022-09-03T08:44:57.455Z,23.7
2022-09-03T08:50:32.250Z,23.7
2022-09-03T08:56:07.303Z,22.3
2022-09-03T09:01:42.487Z,22.2
2022-09-03T09:07:19.794Z,22.6
2022-09-03T09:12:54.666Z,22.9
2022-09-03T09:18:29.728Z,23
2022-09-03T09:24:26.307Z,23.2
2022-09-03T09:29:59.932Z,24.1
2022-09-03T09:35:35.177Z,23.4
2022-09-03T09:41:11.002Z,24.2
2022-09-03T09:46:46.136Z,23.7
2022-09-03T09:52:29.688Z,23.7
2022-09-03T09:58:04.734Z,24
2022-09-03T10:03:39.528Z,23.7
2022-09-03T10:09:15.461Z,24.4
2022-09-03T10:14:52.230Z,24.7
2022-09-03T10:20:27.084Z,24.7
2022-09-03T10:26:24.083Z,24.8
2022-09-03T10:32:05.944Z,24.5
2022-09-03T10:38:02.628Z,24.8
2022-09-03T10:43:37.728Z,24.7
2022-09-03T10:49:12.602Z,24.9
2022-09-03T10:54:48.568Z,25.2
2022-09-03T11:00:23.791Z,25.7
2022-09-03T11:05:58.675Z,25.2
2022-09-03T11:11:33.942Z,25.8
2022-09-03T11:17:09.044Z,24.9
2022-09-03T11:22:43.916Z,24.2
2022-09-03T11:28:19.553Z,24
2022-09-03T11:33:54.633Z,23.9
2022-09-03T11:39:30.537Z,23.9
2022-09-03T11:45:07.159Z,24
2022-09-03T11:50:46.512Z,24
2022-09-03T11:56:21.507Z,24
2022-09-03T12:01:57.868Z,24.1
2022-09-03T12:07:36.488Z,24.2
2022-09-03T12:13:11.403Z,24.3
2022-09-03T12:18:46.222Z,24.4
2022-09-03T12:24:43.127Z,24.5
2022-09-03T12:30:17.919Z,24.5
2022-09-03T12:36:00.426Z,24.5
2022-09-03T12:41:36.328Z,24.6
2022-09-03T12:53:20.164Z,24.7
2022-09-03T12:59:17.020Z,24.7
2022-09-03T13:04:51.163Z,24.7
2022-09-03T13:10:28.523Z,24.7
2022-09-03T13:16:04.755Z,24.7
2022-09-03T13:21:39.575Z,24.7
2022-09-03T13:27:14.443Z,24.6
2022-09-03T13:32:49.245Z,24.7
2022-09-03T13:38:46.852Z,25
2022-09-03T13:44:20.778Z,24.8
2022-09-03T13:50:17.749Z,24.7
2022-09-03T13:55:51.329Z,24.6
2022-09-03T14:01:27.260Z,24.5
2022-09-03T14:07:03.089Z,24.7
2022-09-03T14:12:38.091Z,24.9
2022-09-03T14:18:13.742Z,24.8
2022-09-03T14:24:10.229Z,25
2022-09-03T14:29:43.950Z,24.9
2022-09-03T14:35:20.043Z,25.3
2022-09-03T14:41:16.647Z,25.4
2022-09-03T14:46:50.598Z,25.6
2022-09-03T14:52:25.496Z,25.8
2022-09-03T14:58:01.358Z,25.7
2022-09-03T15:03:36.451Z,25.5
2022-09-03T15:09:11.551Z,25.3
2022-09-03T15:14:47.464Z,25.2
2022-09-03T15:20:46.981Z,25.2
2022-09-03T15:26:42.345Z,25.1
2022-09-03T15:32:17.129Z,25
2022-09-03T15:37:51.981Z,24.9
2022-09-03T15:43:26.983Z,24.8
2022-09-03T15:49:01.819Z,24.8
2022-09-03T15:54:37.102Z,24.7
2022-09-03T16:00:12.030Z,24.7
2022-09-03T16:06:17.074Z,24.7
2022-09-03T16:11:51.163Z,24.7
2022-09-03T16:17:25.986Z,24.9
2022-09-03T16:23:00.716Z,25.5
2022-09-03T16:28:35.712Z,25.5
2022-09-03T16:34:15.381Z,25.6
2022-09-03T16:39:55.143Z,25.5
2022-09-03T16:45:32.300Z,25.3
2022-09-03T16:51:08.136Z,25.1
2022-09-03T16:56:42.946Z,24.9
2022-09-03T17:02:37.454Z,24.7
2022-09-03T17:08:18.452Z,24.6
2022-09-03T17:13:53.161Z,24.4
2022-09-03T17:19:28.666Z,24.3
2022-09-03T17:25:03.601Z,24.2
2022-09-03T17:30:38.792Z,24.2
2022-09-03T17:36:13.619Z,24.3
2022-09-03T17:41:49.769Z,24.5
2022-09-03T17:47:25.514Z,24.6
2022-09-03T17:53:07.780Z,24.5
2022-09-03T17:58:42.836Z,24.2
2022-09-03T18:04:17.736Z,24.1
2022-09-03T18:09:54.025Z,23.8
2022-09-03T18:15:28.846Z,23.2
2022-09-03T18:21:22.212Z,22.8
2022-09-03T18:27:06.601Z,22.4
2022-09-03T18:32:47.001Z,22.3
2022-09-03T18:38:27.117Z,22.1
2022-09-03T18:44:01.903Z,21.8
2022-09-03T18:49:37.048Z,21.7
2022-09-03T18:55:11.721Z,21.5
2022-09-03T19:00:46.788Z,21.4
2022-09-03T19:06:21.725Z,21.2
2022-09-03T19:12:00.114Z,21.1
2022-09-03T19:17:35.930Z,21
2022-09-03T19:23:11.868Z,20.9
2022-09-03T19:28:46.720Z,21.4
2022-09-03T19:34:21.757Z,21.6
2022-09-03T19:39:56.678Z,21.7
2022-09-03T19:45:33.461Z,21.7
2022-09-03T19:51:08.550Z,21.7
2022-09-03T19:56:43.315Z,21.7
2022-09-03T20:02:19.071Z,21.7
2022-09-03T20:07:55.461Z,21.7
2022-09-03T20:13:30.258Z,21.6
2022-09-03T20:19:05.164Z,21.6
2022-09-03T20:25:01.931Z,21.6
2022-09-03T20:30:35.588Z,21.6
2022-09-03T20:36:10.415Z,21.5
2022-09-03T20:41:46.144Z,21.5
2022-09-03T20:47:20.851Z,21.5
2022-09-03T20:52:55.698Z,21.4
2022-09-03T20:58:30.381Z,21.4
2022-09-03T21:04:05.218Z,21.4
2022-09-03T21:09:40.026Z,21.3
2022-09-03T21:15:16.178Z,21.3
2022-09-03T21:20:51.310Z,21.2
2022-09-03T21:26:26.276Z,21.2
2022-09-03T21:32:02.168Z,21.1
2022-09-03T21:37:36.990Z,21
2022-09-03T21:43:12.051Z,21
2022-09-03T21:48:46.903Z,20.9
2022-09-03T21:54:21.919Z,20.9
2022-09-03T21:59:56.799Z,20.8
2022-09-03T22:05:31.612Z,20.8
2022-09-03T22:11:16.738Z,20.8
2022-09-03T22:16:51.572Z,20.8
2022-09-03T22:22:28.656Z,20.8
2022-09-03T22:28:03.446Z,20.7
2022-09-03T22:33:38.298Z,20.7
2022-09-03T22:39:13.154Z,20.6
2022-09-03T22:44:48.008Z,20.6
2022-09-03T22:50:23.163Z,20.5
2022-09-03T22:55:58.076Z,20.5
2022-09-03T23:01:33.042Z,20.5
2022-09-03T23:07:30.550Z,20.4
2022-09-03T23:13:04.209Z,20.3
2022-09-03T23:19:01.321Z,20.3
2022-09-03T23:24:35.296Z,20.3
2022-09-03T23:30:10.003Z,20.2
2022-09-03T23:35:44.826Z,20.2
2022-09-03T23:41:22.909Z,20.2
2022-09-03T23:47:00.762Z,20.1
2022-09-03T23:52:36.408Z,20.1
2022-09-03T23:58:11.106Z,20
